EGSH - Norwich Weather Centre
Distance from station: E 5mi, 14km
Updated: 10/18/2017 10:20pm
Mist, Overcast
Mist, Overcast
 Wind from S
Wind: S 6 mph , 9 km/h
Temperature: 57°F , 14°C
Dew Point: 57°F , 14°C
Humidity: 100%
Barometer: 29.77 inHg , 1008 hPa
Summary: Mist
Clouds: Overcast
Visibility: 1 mile , 1 km
Cloud details: Overcast 100 ft
2017/10/19 05:20 EGSH 190520Z 18005KT 1000 R27/1100 BR OVC001 14/14 Q1008